createdAt,value
2022-11-24T07:29:23.056Z,333.10
2022-11-24T07:31:50.234Z,256.10
2022-11-24T07:34:17.033Z,154.00
2022-11-24T07:46:42.830Z,103.00
2022-11-24T07:49:09.560Z,51.30
2022-11-24T07:51:37.005Z,51.30
2022-11-24T07:54:04.088Z,51.30
2022-11-24T07:56:30.793Z,51.30
2022-11-24T07:58:57.593Z,51.30
2022-11-24T08:01:24.380Z,51.30
2022-11-24T08:03:51.261Z,51.30
2022-11-24T08:06:29.093Z,26.40
2022-11-24T08:08:59.294Z,26.50
2022-11-24T08:11:26.706Z,51.20
2022-11-24T08:13:53.521Z,51.30
2022-11-24T08:16:20.733Z,51.30
2022-11-24T08:18:53.208Z,51.30
2022-11-24T08:21:20.734Z,51.30
2022-11-24T08:23:53.765Z,51.30
2022-11-24T08:26:20.629Z,51.30
2022-11-24T08:28:47.983Z,51.30
2022-11-24T08:31:21.359Z,51.30
2022-11-24T08:33:48.251Z,51.30
2022-11-24T08:36:17.894Z,51.30
2022-11-24T08:38:45.266Z,51.30
2022-11-24T08:41:14.601Z,51.30
2022-11-24T08:43:42.101Z,51.70
2022-11-24T08:46:17.328Z,51.80
2022-11-24T08:48:48.882Z,51.30
2022-11-24T08:51:18.511Z,51.30
2022-11-24T08:53:45.698Z,51.70
2022-11-24T08:56:13.156Z,51.80
2022-11-24T08:58:40.719Z,51.30
2022-11-24T09:01:10.560Z,51.30
2022-11-24T09:03:38.337Z,51.30
2022-11-24T09:06:07.053Z,51.40
2022-11-24T09:08:34.209Z,51.80
2022-11-24T09:11:05.758Z,51.80
2022-11-24T09:13:33.282Z,51.80
2022-11-24T09:16:08.883Z,51.80
2022-11-24T09:18:36.009Z,51.80
2022-11-24T09:21:14.417Z,51.80
2022-11-24T09:23:41.847Z,51.80
2022-11-24T09:26:23.403Z,51.80
2022-11-24T09:28:54.530Z,51.80
2022-11-24T09:31:23.781Z,51.80
2022-11-24T09:33:50.938Z,51.80
2022-11-24T09:36:18.196Z,51.80
2022-11-24T09:38:45.324Z,51.80
2022-11-24T09:41:14.792Z,51.80
2022-11-24T09:43:51.935Z,51.80
2022-11-24T09:46:35.620Z,51.80
2022-11-24T09:49:05.149Z,51.80
2022-11-24T09:51:33.721Z,51.80
2022-11-24T09:54:10.017Z,51.80
2022-11-24T09:56:39.217Z,51.80
2022-11-24T10:01:40.831Z,51.80
2022-11-24T10:04:16.491Z,51.80
2022-11-24T10:07:00.142Z,51.80
2022-11-24T10:09:52.154Z,51.80
2022-11-24T10:12:38.027Z,51.80
2022-11-24T10:15:31.319Z,51.80
2022-11-24T10:18:01.213Z,51.80
2022-11-24T10:20:31.766Z,51.80
2022-11-24T10:23:39.476Z,51.80
2022-11-24T10:33:10.442Z,51.80
2022-11-24T10:35:46.009Z,51.80
2022-11-24T10:38:22.713Z,51.80
2022-11-24T10:40:58.179Z,51.80
2022-11-24T10:43:28.943Z,51.80
2022-11-24T10:46:10.238Z,51.80
2022-11-24T10:48:58.157Z,51.80
2022-11-24T10:51:35.495Z,51.80
2022-11-24T10:54:20.456Z,51.80
2022-11-24T10:56:50.500Z,51.80
2022-11-24T10:59:38.345Z,51.80
2022-11-24T11:02:49.974Z,51.80
2022-11-24T11:05:32.793Z,51.80
2022-11-24T11:08:16.849Z,51.80
2022-11-24T11:10:45.474Z,51.80
2022-11-24T11:13:22.455Z,51.80
2022-11-24T11:15:49.590Z,51.80
2022-11-24T11:34:37.100Z,51.30
2022-11-24T11:37:05.075Z,51.30
2022-11-24T11:39:40.432Z,51.30
2022-11-24T11:43:00.732Z,51.30
2022-11-24T11:45:39.374Z,51.30
2022-11-24T11:48:40.678Z,51.30
2022-11-24T11:51:50.250Z,51.30
2022-11-24T11:54:31.304Z,51.30
2022-11-24T11:57:18.124Z,51.30
2022-11-24T11:59:50.127Z,51.30
2022-11-24T12:03:01.884Z,51.30
2022-11-24T12:05:46.879Z,51.50
2022-11-24T12:09:03.418Z,51.30
2022-11-24T12:11:35.091Z,51.40
2022-11-24T12:14:24.120Z,51.80
2022-11-24T12:17:35.482Z,51.80
2022-11-24T12:20:38.438Z,51.80
2022-11-24T12:23:26.884Z,51.80
2022-11-24T12:26:22.138Z,51.30
2022-11-24T12:29:13.261Z,51.30
2022-11-24T12:32:12.042Z,51.30
2022-11-24T12:34:52.812Z,51.30
2022-11-24T12:37:22.627Z,51.30
2022-11-24T12:40:17.905Z,51.30
2022-11-24T12:43:12.606Z,51.30
2022-11-24T12:45:45.701Z,51.80
2022-11-24T12:48:36.938Z,51.80
2022-11-24T12:51:11.623Z,51.80
2022-11-24T12:53:40.156Z,51.80
2022-11-24T12:56:13.365Z,51.80
2022-11-24T12:58:45.892Z,51.80
2022-11-24T13:01:16.774Z,51.80
2022-11-24T13:04:07.512Z,51.80
2022-11-24T13:07:01.027Z,51.80
2022-11-24T13:09:28.972Z,51.80
2022-11-24T13:12:21.318Z,51.80
2022-11-24T13:14:49.894Z,51.80
2022-11-24T13:17:52.416Z,51.80
2022-11-24T13:20:25.559Z,51.80
2022-11-24T13:22:56.365Z,51.80
2022-11-24T13:25:31.039Z,51.80
2022-11-24T13:28:00.636Z,51.30
2022-11-24T13:30:38.039Z,51.30
2022-11-24T13:33:16.884Z,51.30
2022-11-24T13:36:03.652Z,51.30
2022-11-24T13:38:46.534Z,51.30
2022-11-24T13:41:32.775Z,51.30
2022-11-24T13:44:15.268Z,51.30
2022-11-24T13:47:06.937Z,51.30
2022-11-24T13:49:41.068Z,51.30
2022-11-24T13:52:36.989Z,51.30
2022-11-24T13:55:33.031Z,51.30
2022-11-24T13:58:31.505Z,51.30
2022-11-24T14:01:13.433Z,51.30
2022-11-24T14:04:07.044Z,51.30
2022-11-24T14:06:46.829Z,51.30
2022-11-24T14:09:35.548Z,51.30
2022-11-24T14:12:27.305Z,51.30
2022-11-24T14:19:27.912Z,51.30
2022-11-24T14:21:58.975Z,51.30
2022-11-24T14:43:25.214Z,51.30
2022-11-24T14:49:23.464Z,26.30
2022-11-24T14:58:54.038Z,26.30
2022-11-24T15:01:27.822Z,26.30
2022-11-24T15:07:27.468Z,26.30
2022-11-24T15:10:00.656Z,26.30
2022-11-24T15:12:42.244Z,26.30
2022-11-24T15:32:56.348Z,26.30
2022-11-24T15:35:26.028Z,26.30
2022-11-24T15:37:58.241Z,26.30
2022-11-24T15:40:25.276Z,26.30
2022-11-24T15:42:59.625Z,26.30
2022-11-24T15:45:30.586Z,26.30
2022-11-24T15:47:57.574Z,26.30
2022-11-24T15:50:25.608Z,26.30
2022-11-24T15:52:53.009Z,26.30
2022-11-24T15:55:22.333Z,26.30
2022-11-24T15:57:57.923Z,26.30
2022-11-24T16:00:25.009Z,26.30
2022-11-24T16:02:52.822Z,26.30
2022-11-24T16:05:19.801Z,26.30
2022-11-24T16:07:46.803Z,26.30
2022-11-24T16:10:23.832Z,26.30
2022-11-24T16:12:51.402Z,26.30
2022-11-24T16:15:18.459Z,26.30
2022-11-24T16:17:45.722Z,26.30
2022-11-24T16:20:13.916Z,26.30
2022-11-24T16:22:42.492Z,26.30
2022-11-24T16:25:10.675Z,26.30
2022-11-24T16:27:43.036Z,26.30
2022-11-24T16:30:28.330Z,26.30
2022-11-24T16:32:55.820Z,26.30
2022-11-24T16:35:23.654Z,26.30
2022-11-24T16:37:50.983Z,26.30
2022-11-24T16:40:20.517Z,26.20
2022-11-24T16:42:48.301Z,26.30
2022-11-24T16:45:15.788Z,26.20
2022-11-24T16:47:54.001Z,26.20
2022-11-24T16:50:21.059Z,26.20
2022-11-24T16:52:50.061Z,25.80
2022-11-24T16:55:17.032Z,25.80
2022-11-24T16:57:45.157Z,25.80
2022-11-24T17:00:13.031Z,25.80
2022-11-24T17:02:40.970Z,25.80
2022-11-24T17:05:10.049Z,25.80
2022-11-24T17:07:37.740Z,25.80
2022-11-24T17:10:07.255Z,25.80
2022-11-24T17:12:36.890Z,25.80
2022-11-24T17:18:23.063Z,25.80
2022-11-24T17:20:43.671Z,25.80
2022-11-24T17:23:11.898Z,25.80
2022-11-24T17:25:42.982Z,25.80
2022-11-24T17:28:11.062Z,25.80
2022-11-24T17:30:38.527Z,25.80
2022-11-24T17:33:06.095Z,25.80
2022-11-24T17:35:37.938Z,25.80
2022-11-24T17:38:07.237Z,25.80
2022-11-24T17:40:35.649Z,25.80
2022-11-24T17:43:03.780Z,25.80
2022-11-24T17:45:31.767Z,25.80
2022-11-24T17:48:01.879Z,25.80
2022-11-24T17:50:30.634Z,25.80
2022-11-24T17:52:58.269Z,25.80
2022-11-24T17:55:32.549Z,25.80
2022-11-24T17:57:59.498Z,25.80
2022-11-24T18:00:27.451Z,25.80
2022-11-24T18:02:54.429Z,25.80
2022-11-24T18:05:26.931Z,25.80
2022-11-24T18:07:55.595Z,25.80
2022-11-24T18:10:22.862Z,25.80
2022-11-24T18:12:50.304Z,25.80
2022-11-24T18:15:18.508Z,25.80
2022-11-24T18:17:45.594Z,25.80
2022-11-24T18:20:13.461Z,25.80
2022-11-24T18:23:04.495Z,25.80
2022-11-24T18:25:29.010Z,25.80
2022-11-24T18:27:56.305Z,25.80
2022-11-24T18:30:23.552Z,25.80
2022-11-24T18:32:51.132Z,25.80
2022-11-24T18:35:21.093Z,25.80
2022-11-24T18:37:48.534Z,25.80
2022-11-24T18:40:15.735Z,25.80
2022-11-24T18:42:44.337Z,25.80
2022-11-24T18:45:11.709Z,25.80
2022-11-24T18:47:41.136Z,25.80
2022-11-24T18:50:09.047Z,25.80
2022-11-24T18:52:36.189Z,0.70
2022-11-24T18:55:04.962Z,0.70
2022-11-24T18:57:34.865Z,0.80
2022-11-24T19:00:02.986Z,25.80
2022-11-24T19:02:30.851Z,0.70
2022-11-24T19:04:58.090Z,0.70
2022-11-24T19:07:25.719Z,0.70
2022-11-24T19:09:53.336Z,0.90
2022-11-24T19:12:20.712Z,25.80
2022-11-24T19:14:48.306Z,0.90
2022-11-24T19:17:15.694Z,0.70
2022-11-24T19:19:43.261Z,0.70
2022-11-24T19:22:10.720Z,0.70
2022-11-24T19:24:38.483Z,0.70
2022-11-24T19:27:05.555Z,0.70
2022-11-24T19:29:33.148Z,0.70
2022-11-24T19:32:02.060Z,0.70
2022-11-24T19:34:29.462Z,0.70
2022-11-24T19:36:57.196Z,0.70
2022-11-24T19:39:24.326Z,0.70
2022-11-24T19:41:51.310Z,0.70
2022-11-24T19:44:18.563Z,0.70
2022-11-24T19:46:45.779Z,0.70
2022-11-24T19:49:12.946Z,0.70
2022-11-24T19:51:40.280Z,0.70
2022-11-24T19:54:10.724Z,0.70
2022-11-24T19:56:38.151Z,0.70
2022-11-24T19:59:06.747Z,0.70
2022-11-24T20:01:39.693Z,0.70
2022-11-24T20:04:09.547Z,0.70
2022-11-24T20:06:38.896Z,0.70
2022-11-24T20:09:10.427Z,0.70
2022-11-24T20:11:38.516Z,0.70
2022-11-24T20:14:07.347Z,0.70
2022-11-24T20:16:37.315Z,0.70
2022-11-24T20:19:12.262Z,0.70
2022-11-24T20:21:41.683Z,0.70
2022-11-24T20:24:09.071Z,0.70
2022-11-24T20:26:40.776Z,0.70
2022-11-24T20:29:13.758Z,0.70
2022-11-24T20:31:51.321Z,0.70
2022-11-24T20:34:20.412Z,0.70
2022-11-24T20:36:49.087Z,0.70
2022-11-24T20:39:21.945Z,0.70
2022-11-24T20:41:49.894Z,0.70
2022-11-24T20:44:18.690Z,0.70
2022-11-24T20:46:46.932Z,0.70
2022-11-24T20:49:18.671Z,0.70
2022-11-24T20:51:55.618Z,25.60
2022-11-24T20:54:23.507Z,25.80
2022-11-24T20:56:50.652Z,25.80
2022-11-24T20:59:21.727Z,0.70
2022-11-24T21:01:50.320Z,0.80
2022-11-24T21:04:23.072Z,25.80
2022-11-24T21:06:51.392Z,25.80
2022-11-24T21:09:18.907Z,25.80
2022-11-24T21:11:47.495Z,25.80
2022-11-24T21:14:14.976Z,25.80
2022-11-24T21:16:43.240Z,25.80
2022-11-24T21:19:14.453Z,25.80
2022-11-24T21:21:43.089Z,25.80
2022-11-24T21:24:13.258Z,25.80
2022-11-24T21:26:41.147Z,25.80
2022-11-24T21:29:12.078Z,25.80
2022-11-24T21:31:41.712Z,25.80
2022-11-24T21:34:09.838Z,25.80
2022-11-24T21:36:40.970Z,25.80
2022-11-24T21:39:14.050Z,25.80
2022-11-24T21:41:41.554Z,25.80
2022-11-24T21:44:10.482Z,25.80
2022-11-24T21:46:44.093Z,25.80
2022-11-24T21:49:17.841Z,25.80
2022-11-24T21:51:45.032Z,25.80
2022-11-24T21:54:12.077Z,25.80
2022-11-24T21:56:39.423Z,25.80
2022-11-24T21:59:06.431Z,25.80
2022-11-24T22:01:33.771Z,25.80
2022-11-24T22:04:02.598Z,25.80
2022-11-24T22:06:29.833Z,25.80
2022-11-24T22:08:57.071Z,25.80
2022-11-24T22:11:25.565Z,25.80
2022-11-24T22:13:53.227Z,25.80
2022-11-24T22:16:23.367Z,25.80
2022-11-24T22:18:51.087Z,25.80
2022-11-24T22:21:31.465Z,25.80
2022-11-24T22:23:58.707Z,25.80
2022-11-24T22:26:26.851Z,25.80
2022-11-24T22:28:54.963Z,25.80
2022-11-24T22:31:27.268Z,25.80
2022-11-24T22:33:55.521Z,25.80
2022-11-24T22:36:25.545Z,25.80
2022-11-24T22:39:05.454Z,25.80
2022-11-24T22:41:34.126Z,25.80
2022-11-24T22:44:01.858Z,25.80
2022-11-24T22:46:30.600Z,25.80
2022-11-24T22:49:00.926Z,25.80
2022-11-24T22:51:33.612Z,25.80
2022-11-24T22:54:05.830Z,25.80
2022-11-24T22:56:50.692Z,25.80
2022-11-24T22:59:18.070Z,25.80
2022-11-24T23:01:45.462Z,25.80
2022-11-24T23:04:12.614Z,25.80
2022-11-24T23:06:39.971Z,25.80
2022-11-24T23:09:11.338Z,25.80
2022-11-24T23:11:40.459Z,25.80
2022-11-24T23:14:12.753Z,25.80
2022-11-24T23:16:45.162Z,25.80
2022-11-24T23:19:12.887Z,25.80
2022-11-24T23:21:39.982Z,25.80
2022-11-24T23:24:07.887Z,25.80
2022-11-24T23:26:38.044Z,25.80
2022-11-24T23:29:06.659Z,25.80
2022-11-24T23:31:34.088Z,25.80
2022-11-24T23:34:04.600Z,25.80
2022-11-24T23:36:33.217Z,25.80
2022-11-24T23:39:08.879Z,25.80
2022-11-24T23:41:36.145Z,25.80
2022-11-24T23:44:03.637Z,25.80
2022-11-24T23:46:32.866Z,25.80
2022-11-24T23:49:00.654Z,25.80
2022-11-24T23:51:30.333Z,25.80
2022-11-24T23:53:58.482Z,25.80
2022-11-24T23:56:27.832Z,25.80
2022-11-24T23:58:55.112Z,25.80
